Time;durP1;ratioP1;P1;durP2;ratioP2;P2;SDS_P1;SDS_P2;PMS_P1;PMS_P2;Temp;Humidity;BMP_temperature;BMP_pressure;BME280_temperature;BME280_humidity;BME280_pressure;Samples;Min_cycle;Max_cycle;Signal;HPM_P1;HPM_P2
2022/03/19 00:02:01;;;;;;;13.30;4.07;;;23.60;71.30;;;;;;6279943;22;20310;-74
2022/03/19 00:04:29;;;;;;;18.95;4.40;;;23.50;71.10;;;;;;6177016;23;20005;-74
2022/03/19 00:06:55;;;;;;;14.75;3.20;;;23.50;71.20;;;;;;6176582;23;20054;-74
2022/03/19 00:09:22;;;;;;;44.45;4.88;;;23.50;71.10;;;;;;6176649;23;20080;-74
2022/03/19 00:11:49;;;;;;;22.15;5.22;;;23.50;71.20;;;;;;6178000;23;20096;-74
2022/03/19 00:14:16;;;;;;;14.05;3.70;;;23.50;71.30;;;;;;6175882;23;20005;-74
2022/03/19 00:16:43;;;;;;;13.73;4.00;;;23.50;71.20;;;;;;6281091;22;20398;-74
2022/03/19 00:19:09;;;;;;;19.40;4.22;;;23.50;71.20;;;;;;6176206;23;19997;-74
2022/03/19 00:21:37;;;;;;;25.05;5.07;;;23.50;71.20;;;;;;6177005;23;20019;-75
2022/03/19 00:24:05;;;;;;;14.63;3.35;;;23.40;71.20;;;;;;6176765;23;19997;-74
2022/03/19 00:26:33;;;;;;;15.90;4.13;;;23.50;71.20;;;;;;6176569;23;20004;-73
2022/03/19 00:29:00;;;;;;;45.95;6.07;;;23.50;71.20;;;;;;6177164;23;19997;-75
2022/03/19 00:31:26;;;;;;;25.23;4.20;;;23.40;71.20;;;;;;6175929;23;20001;-75
2022/03/19 00:33:52;;;;;;;17.13;3.70;;;23.50;71.30;;;;;;6177188;23;20013;-75
2022/03/19 00:36:19;;;;;;;22.25;4.32;;;23.40;71.20;;;;;;6175823;23;20005;-75
2022/03/19 00:38:45;;;;;;;29.17;5.10;;;23.40;71.20;;;;;;6176985;23;20001;-75
2022/03/19 00:41:13;;;;;;;17.52;4.65;;;23.40;71.40;;;;;;6176430;23;20009;-75
2022/03/19 00:43:41;;;;;;;17.23;4.20;;;23.40;71.40;;;;;;6176137;23;20001;-75
2022/03/19 00:46:07;;;;;;;17.90;4.50;;;23.40;71.40;;;;;;6177265;23;20084;-75
2022/03/19 00:48:34;;;;;;;22.48;4.13;;;23.40;71.30;;;;;;6175814;23;20016;-74
2022/03/19 00:51:00;;;;;;;14.15;4.32;;;23.40;71.30;;;;;;6176951;23;20032;-74
2022/03/19 00:53:27;;;;;;;16.30;4.47;;;23.40;71.30;;;;;;6175888;23;20005;-74
2022/03/19 00:55:53;;;;;;;15.18;3.92;;;23.40;71.30;;;;;;6177896;23;20001;-76
2022/03/19 00:58:20;;;;;;;23.42;6.07;;;23.40;71.40;;;;;;6175987;23;20047;-74
2022/03/19 01:00:46;;;;;;;30.73;4.32;;;23.30;71.30;;;;;;6176175;23;20017;-74
2022/03/19 01:03:13;;;;;;;15.80;4.90;;;23.40;71.40;;;;;;6177013;23;20058;-75
2022/03/19 01:05:42;;;;;;;19.42;3.70;;;23.30;71.30;;;;;;6175607;23;19993;-75
2022/03/19 01:08:09;;;;;;;11.15;3.33;;;23.30;71.30;;;;;;6176734;23;20496;-75
2022/03/19 01:10:35;;;;;;;9.88;3.53;;;23.30;71.20;;;;;;6175617;23;19997;-75
2022/03/19 01:13:05;;;;;;;13.23;4.13;;;23.30;71.20;;;;;;6176953;23;20009;-74
2022/03/19 01:15:32;;;;;;;20.55;5.03;;;23.30;71.30;;;;;;6175816;23;20074;-75
2022/03/19 01:18:00;;;;;;;46.67;6.45;;;23.30;71.30;;;;;;6176060;23;20005;-74
2022/03/19 01:20:27;;;;;;;18.13;4.32;;;23.30;71.40;;;;;;6177455;23;20046;-75
2022/03/19 01:22:53;;;;;;;22.50;5.10;;;23.30;71.50;;;;;;6177170;23;20072;-75
2022/03/19 01:25:20;;;;;;;12.00;4.20;;;23.30;71.50;;;;;;6177968;23;20040;-74
2022/03/19 01:27:49;;;;;;;12.75;4.00;;;23.20;71.50;;;;;;6176719;23;20062;-75
2022/03/19 01:30:17;;;;;;;11.60;3.08;;;23.20;71.50;;;;;;6177977;23;20051;-75
2022/03/19 01:32:46;;;;;;;13.68;3.60;;;23.20;71.50;;;;;;6177241;23;20001;-75
2022/03/19 01:35:13;;;;;;;11.18;3.38;;;23.20;71.50;;;;;;6177814;23;20028;-75
2022/03/19 01:37:41;;;;;;;13.35;3.90;;;23.20;71.40;;;;;;6177919;23;19997;-75
2022/03/19 01:40:09;;;;;;;24.50;5.80;;;23.20;71.40;;;;;;6176706;23;20504;-75
2022/03/19 01:42:37;;;;;;;15.35;3.55;;;23.20;71.40;;;;;;6178222;23;20416;-75
2022/03/19 01:45:08;;;;;;;13.52;4.10;;;23.20;71.50;;;;;;6176932;23;20076;-75
2022/03/19 01:47:34;;;;;;;18.33;4.63;;;23.20;71.50;;;;;;6178183;23;20001;-75
2022/03/19 01:50:01;;;;;;;10.88;4.00;;;23.20;71.60;;;;;;6177138;23;20005;-75
2022/03/19 01:52:31;;;;;;;14.30;4.55;;;23.20;71.70;;;;;;6177715;23;20002;-75
2022/03/19 01:54:59;;;;;;;12.55;3.53;;;23.10;71.70;;;;;;6177699;23;20001;-76
2022/03/19 01:57:30;;;;;;;20.55;4.57;;;23.10;71.80;;;;;;6176751;23;19997;-75
2022/03/19 01:59:58;;;;;;;20.30;4.88;;;23.10;72.00;;;;;;6178150;23;20013;-74
2022/03/19 02:02:26;;;;;;;27.80;5.90;;;23.10;72.20;;;;;;6176632;23;20009;-74
2022/03/19 02:04:53;;;;;;;36.60;7.18;;;23.10;72.10;;;;;;6178078;23;19998;-74
2022/03/19 02:07:21;;;;;;;45.38;6.57;;;23.10;72.50;;;;;;6177278;23;20001;-74
2022/03/19 02:09:47;;;;;;;19.40;5.20;;;23.10;72.50;;;;;;6177523;23;20073;-75
2022/03/19 02:12:13;;;;;;;24.75;5.65;;;23.10;72.30;;;;;;6177573;23;20032;-74
2022/03/19 02:14:41;;;;;;;16.05;4.07;;;23.10;72.00;;;;;;6176956;23;20001;-74
2022/03/19 02:17:11;;;;;;;13.45;3.33;;;23.10;71.80;;;;;;6177882;23;20127;-74
2022/03/19 02:19:52;;;;;;;17.65;4.03;;;23.10;71.70;;;;;;6176594;23;20005;-74
2022/03/19 02:22:20;;;;;;;9.35;3.45;;;23.10;71.70;;;;;;6178128;23;20023;-76
2022/03/19 02:27:32;;;;;;;19.38;3.72;;;23.00;71.60;;;;;;6177103;23;20012;-75
2022/03/19 02:29:59;;;;;;;16.67;3.65;;;23.00;71.60;;;;;;6177488;23;20332;-76
2022/03/19 02:32:26;;;;;;;14.68;4.30;;;23.00;71.70;;;;;;6280179;22;20320;-74
2022/03/19 02:34:53;;;;;;;22.98;5.95;;;23.00;71.80;;;;;;6177374;23;20032;-75
2022/03/19 02:37:20;;;;;;;14.13;4.80;;;23.00;71.70;;;;;;6176816;23;20409;-75
2022/03/19 02:39:48;;;;;;;46.75;9.45;;;23.00;71.80;;;;;;6177895;23;20528;-73
2022/03/19 02:42:19;;;;;;;51.00;18.92;;;23.00;71.90;;;;;;6177192;23;20013;-74
2022/03/19 02:44:46;;;;;;;54.60;16.25;;;23.00;72.00;;;;;;6177046;23;20119;-74
2022/03/19 02:47:13;;;;;;;42.05;11.80;;;23.00;72.00;;;;;;6177684;23;19997;-74
2022/03/19 02:49:40;;;;;;;32.10;8.75;;;22.90;72.10;;;;;;6176341;23;20005;-74
2022/03/19 02:52:06;;;;;;;34.83;7.22;;;23.00;72.20;;;;;;6178031;23;20447;-75
2022/03/19 02:54:33;;;;;;;21.88;7.03;;;22.90;72.30;;;;;;6176439;23;20031;-75
2022/03/19 02:57:00;;;;;;;15.65;6.00;;;23.00;72.30;;;;;;6177611;23;20001;-75
2022/03/19 02:59:29;;;;;;;30.67;7.63;;;23.00;72.20;;;;;;6177610;23;20609;-74
2022/03/19 03:02:01;;;;;;;20.08;6.78;;;22.90;73.10;;;;;;6176621;23;20035;-74
2022/03/19 03:04:28;;;;;;;14.27;6.13;;;22.90;72.00;;;;;;6177366;23;20008;-75
2022/03/19 03:06:57;;;;;;;14.68;5.95;;;22.90;71.80;;;;;;6176206;23;19998;-74
2022/03/19 03:09:25;;;;;;;18.27;5.72;;;22.90;71.70;;;;;;6177912;23;20142;-74
2022/03/19 03:11:52;;;;;;;17.25;5.50;;;22.90;71.60;;;;;;6176678;23;20001;-74
2022/03/19 03:14:22;;;;;;;15.60;4.85;;;22.90;71.40;;;;;;6177741;23;20005;-75
2022/03/19 03:16:49;;;;;;;15.73;6.25;;;22.90;71.20;;;;;;6177022;23;20001;-74
2022/03/19 03:19:17;;;;;;;14.57;5.45;;;22.90;71.20;;;;;;6177176;23;20309;-75
2022/03/19 03:21:44;;;;;;;26.17;6.40;;;22.90;71.10;;;;;;6177471;23;20009;-75
2022/03/19 03:24:11;;;;;;;19.95;4.97;;;22.90;71.00;;;;;;6176060;23;20005;-74
2022/03/19 03:26:39;;;;;;;39.42;6.45;;;22.90;71.00;;;;;;6177358;23;20079;-74
2022/03/19 03:29:07;;;;;;;25.23;10.73;;;22.90;70.90;;;;;;6176402;23;20009;-73
2022/03/19 03:31:34;;;;;;;63.03;12.18;;;22.80;70.90;;;;;;6176837;23;20008;-73
2022/03/19 03:34:01;;;;;;;22.73;9.05;;;22.80;70.80;;;;;;6176874;23;20379;-73
2022/03/19 03:36:28;;;;;;;32.28;10.77;;;22.80;70.90;;;;;;6176174;23;20033;-73
2022/03/19 03:38:54;;;;;;;18.30;8.25;;;22.80;70.90;;;;;;6176364;23;20080;-73
2022/03/19 03:41:21;;;;;;;24.10;5.65;;;22.80;70.80;;;;;;6175664;23;20067;-74
2022/03/19 03:43:47;;;;;;;20.92;5.10;;;22.80;70.80;;;;;;6176928;23;20005;-73
2022/03/19 03:46:15;;;;;;;26.95;5.22;;;22.80;70.50;;;;;;6175267;23;20055;-73
2022/03/19 03:48:41;;;;;;;17.75;4.95;;;22.70;70.40;;;;;;6176674;23;19997;-74
2022/03/19 03:51:11;;;;;;;29.33;4.57;;;22.70;70.80;;;;;;6176114;23;20440;-75
2022/03/19 03:53:38;;;;;;;26.17;6.53;;;22.70;70.70;;;;;;6176585;23;20025;-74
2022/03/19 03:56:05;;;;;;;25.23;5.70;;;22.70;70.10;;;;;;6177339;23;20096;-74
2022/03/19 03:58:32;;;;;;;19.38;4.70;;;22.70;70.90;;;;;;6175494;23;20007;-74
2022/03/19 04:00:59;;;;;;;15.05;7.32;;;22.60;71.10;;;;;;6176526;23;20016;-76
2022/03/19 04:03:25;;;;;;;19.52;9.13;;;22.60;70.60;;;;;;6175500;23;20080;-75
2022/03/19 04:05:52;;;;;;;15.80;6.18;;;22.60;70.40;;;;;;6176406;23;19997;-74
2022/03/19 04:08:19;;;;;;;12.07;4.18;;;22.50;70.70;;;;;;6175801;23;20016;-75
2022/03/19 04:10:45;;;;;;;17.35;4.65;;;22.60;70.70;;;;;;6176415;23;20081;-75
2022/03/19 04:13:12;;;;;;;11.73;3.70;;;22.60;70.60;;;;;;6176654;23;20027;-76
2022/03/19 04:15:38;;;;;;;13.45;4.47;;;22.60;70.70;;;;;;6175394;23;19997;-74
2022/03/19 04:18:05;;;;;;;16.33;4.43;;;22.60;70.70;;;;;;6176863;23;20001;-73
2022/03/19 04:20:32;;;;;;;31.80;8.45;;;22.60;70.80;;;;;;6175602;23;20001;-74
2022/03/19 04:22:58;;;;;;;20.88;4.38;;;22.60;70.80;;;;;;6177134;23;20054;-74
2022/03/19 04:25:26;;;;;;;12.30;4.75;;;22.60;70.90;;;;;;6175672;23;19997;-75
2022/03/19 04:27:55;;;;;;;9.40;3.85;;;22.60;70.80;;;;;;6176099;23;20005;-75
2022/03/19 04:30:25;;;;;;;10.45;4.25;;;22.60;70.90;;;;;;6176406;23;20072;-75
2022/03/19 04:32:57;;;;;;;42.85;6.88;;;22.60;70.80;;;;;;6175692;23;20001;-74
2022/03/19 04:38:12;;;;;;;18.95;4.22;;;22.50;71.40;;;;;;6175221;23;20023;-73
2022/03/19 04:40:39;;;;;;;9.98;3.17;;;22.50;71.30;;;;;;6175981;23;20492;-73
2022/03/19 04:43:08;;;;;;;12.77;3.90;;;22.50;71.20;;;;;;6175300;23;20032;-74
2022/03/19 04:45:36;;;;;;;12.38;3.95;;;22.50;71.20;;;;;;6174920;23;19997;-75
2022/03/19 04:48:03;;;;;;;11.60;3.60;;;22.50;71.10;;;;;;6176234;23;20033;-75
2022/03/19 04:50:29;;;;;;;15.20;3.92;;;22.50;71.00;;;;;;6175605;23;20001;-75
2022/03/19 04:52:56;;;;;;;7.97;3.05;;;22.50;71.00;;;;;;6176917;23;20005;-74
2022/03/19 04:55:23;;;;;;;23.98;9.63;;;22.50;71.00;;;;;;6176633;23;20058;-73
2022/03/19 04:57:50;;;;;;;26.42;13.95;;;22.50;71.10;;;;;;6177638;23;20084;-74
2022/03/19 05:00:17;;;;;;;17.00;9.70;;;22.50;71.00;;;;;;6177278;23;20001;-73
2022/03/19 05:02:45;;;;;;;18.30;6.40;;;22.50;71.10;;;;;;6176523;23;20061;-73
2022/03/19 05:05:12;;;;;;;11.85;4.35;;;22.50;71.20;;;;;;6176903;23;20425;-73
2022/03/19 05:07:39;;;;;;;12.35;3.72;;;22.50;71.20;;;;;;6175720;23;19997;-74
2022/03/19 05:12:53;;;;;;;12.50;3.30;;;22.50;71.40;;;;;;6175507;23;20478;-73
2022/03/19 05:15:19;;;;;;;12.57;5.20;;;22.50;72.10;;;;;;6175727;23;20076;-73
2022/03/19 05:17:46;;;;;;;15.68;3.63;;;22.50;71.50;;;;;;6176658;23;20072;-74
2022/03/19 05:20:14;;;;;;;9.27;3.92;;;22.50;71.50;;;;;;6271089;22;20017;-74
2022/03/19 05:22:41;;;;;;;15.85;4.60;;;22.40;71.50;;;;;;6175448;23;20013;-73
2022/03/19 05:25:08;;;;;;;15.02;4.10;;;22.40;71.50;;;;;;6174028;23;20036;-84
2022/03/19 05:27:35;;;;;;;10.50;2.60;;;22.50;71.80;;;;;;6176820;23;20004;-75
2022/03/19 05:30:01;;;;;;;14.93;3.40;;;22.40;71.70;;;;;;6175853;23;20691;-75
2022/03/19 05:32:28;;;;;;;14.02;5.82;;;22.50;71.80;;;;;;6176738;23;20472;-76
2022/03/19 05:34:55;;;;;;;18.17;8.07;;;22.40;72.00;;;;;;6175089;23;20109;-77
2022/03/19 05:37:22;;;;;;;21.25;8.65;;;22.40;72.10;;;;;;6175875;23;20001;-77
2022/03/19 05:39:48;;;;;;;15.02;6.38;;;22.40;72.20;;;;;;6177356;23;20080;-73
2022/03/19 05:42:15;;;;;;;18.83;5.45;;;22.40;72.30;;;;;;6175994;23;20016;-75
2022/03/19 05:44:42;;;;;;;13.98;5.10;;;22.40;72.50;;;;;;6177519;23;20359;-73
2022/03/19 05:47:08;;;;;;;11.98;3.28;;;22.40;72.40;;;;;;6175640;23;20016;-73
2022/03/19 05:49:35;;;;;;;15.85;4.30;;;22.40;72.50;;;;;;6177404;23;20005;-71
2022/03/19 05:52:01;;;;;;;14.18;3.70;;;22.40;72.50;;;;;;6177128;23;19997;-75
2022/03/19 05:54:28;;;;;;;118.97;17.02;;;22.40;72.60;;;;;;6176266;23;20001;-72
2022/03/19 05:56:54;;;;;;;78.53;9.90;;;22.40;72.60;;;;;;6177279;23;20005;-74
2022/03/19 05:59:21;;;;;;;41.13;7.68;;;22.40;72.50;;;;;;6176016;23;20501;-73
2022/03/19 06:01:48;;;;;;;19.88;4.70;;;22.50;72.70;;;;;;6176780;23;20070;-74
2022/03/19 06:04:18;;;;;;;17.77;3.75;;;22.50;72.70;;;;;;6175424;23;20001;-72
2022/03/19 06:06:44;;;;;;;10.30;3.42;;;22.50;72.70;;;;;;6177261;23;20007;-73
2022/03/19 06:09:11;;;;;;;9.20;3.20;;;22.50;72.60;;;;;;6176276;23;20009;-74
2022/03/19 06:11:38;;;;;;;28.65;5.85;;;22.50;72.50;;;;;;6280513;22;20436;-74
2022/03/19 06:14:05;;;;;;;23.67;4.72;;;22.50;72.70;;;;;;6282116;22;20020;-72
2022/03/19 06:16:32;;;;;;;27.30;6.68;;;22.50;73.50;;;;;;6176661;23;19997;-71
2022/03/19 06:18:58;;;;;;;15.95;8.80;;;22.50;72.80;;;;;;6178683;23;20001;-73
2022/03/19 06:21:25;;;;;;;11.40;6.35;;;22.50;72.80;;;;;;6177095;23;20016;-73
2022/03/19 06:23:53;;;;;;;17.48;5.32;;;22.60;72.90;;;;;;6178314;23;20005;-73
2022/03/19 06:26:20;;;;;;;15.95;4.20;;;22.60;72.80;;;;;;6177116;23;20033;-74
2022/03/19 06:28:46;;;;;;;26.55;6.07;;;22.60;72.70;;;;;;6178071;23;20001;-73
2022/03/19 06:31:13;;;;;;;42.15;7.97;;;22.60;72.70;;;;;;6178110;23;20026;-73
2022/03/19 06:33:41;;;;;;;31.98;5.93;;;22.60;72.60;;;;;;6176732;23;20428;-74
2022/03/19 06:38:53;;;;;;;56.60;7.32;;;22.70;72.60;;;;;;6177164;23;20304;-72
2022/03/19 06:41:21;;;;;;;33.35;6.70;;;22.70;72.50;;;;;;6178176;23;20451;-72
2022/03/19 06:43:49;;;;;;;19.52;4.85;;;22.80;72.40;;;;;;6177475;23;20001;-72
2022/03/19 06:46:15;;;;;;;15.48;3.85;;;22.80;72.30;;;;;;6177104;23;20002;-72
2022/03/19 06:48:42;;;;;;;18.10;4.05;;;22.80;72.20;;;;;;6176204;23;19997;-73
2022/03/19 06:51:09;;;;;;;33.40;6.03;;;22.90;72.10;;;;;;6175677;23;20005;-73
2022/03/19 06:53:38;;;;;;;31.10;7.25;;;22.90;72.20;;;;;;6177978;23;20004;-73
2022/03/19 06:56:05;;;;;;;29.25;6.57;;;22.90;72.80;;;;;;6176819;23;20002;-72
2022/03/19 06:58:32;;;;;;;21.40;5.32;;;22.90;73.20;;;;;;6178324;23;20005;-72
2022/03/19 07:01:01;;;;;;;24.90;5.47;;;23.00;74.10;;;;;;6177290;23;20024;-74
2022/03/19 07:03:27;;;;;;;40.70;8.05;;;23.00;74.60;;;;;;6177693;23;20003;-72
2022/03/19 07:05:54;;;;;;;30.65;12.18;;;23.10;74.70;;;;;;6177623;23;20009;-75
2022/03/19 07:08:20;;;;;;;33.60;12.18;;;23.10;74.60;;;;;;6176398;23;20384;-75
2022/03/19 07:10:48;;;;;;;26.52;9.27;;;23.20;74.40;;;;;;6176842;23;20039;-76
2022/03/19 07:13:15;;;;;;;27.35;8.68;;;23.20;74.20;;;;;;6175826;23;20005;-76
2022/03/19 07:15:42;;;;;;;15.38;8.43;;;23.30;73.80;;;;;;6176976;23;20005;-73
2022/03/19 07:18:08;;;;;;;21.90;6.78;;;23.30;73.10;;;;;;6175372;23;20343;-73
2022/03/19 07:20:35;;;;;;;16.90;6.75;;;23.30;72.50;;;;;;6176253;23;20130;-71
2022/03/19 07:23:07;;;;;;;34.72;7.75;;;23.40;72.10;;;;;;6175972;23;20076;-72
2022/03/19 07:25:36;;;;;;;28.27;7.15;;;23.40;72.30;;;;;;6175960;23;20409;-71
2022/03/19 07:28:08;;;;;;;19.10;6.68;;;23.40;71.30;;;;;;6176820;23;20774;-70
2022/03/19 07:30:35;;;;;;;27.25;7.15;;;23.50;71.20;;;;;;6175408;23;20455;-71
2022/03/19 07:33:04;;;;;;;25.42;9.38;;;23.50;71.20;;;;;;6176714;23;20058;-71
2022/03/19 07:35:35;;;;;;;33.75;16.98;;;23.50;71.00;;;;;;6176245;23;20021;-71
2022/03/19 07:38:02;;;;;;;24.60;13.70;;;23.60;70.90;;;;;;6278937;22;20412;-71
2022/03/19 07:43:14;;;;;;;;;;;23.60;70.60;;;;;;6176508;23;20063;-72
2022/03/19 07:45:42;;;;;;;39.03;12.27;;;23.70;70.70;;;;;;6176929;23;19987;-78
2022/03/19 07:48:09;;;;;;;32.08;11.23;;;23.70;70.80;;;;;;6176513;23;20040;-75
2022/03/19 07:50:37;;;;;;;23.13;11.20;;;23.80;70.90;;;;;;6177883;23;20004;-72
2022/03/19 07:53:05;;;;;;;25.10;10.13;;;23.80;70.90;;;;;;6177840;23;20086;-73
2022/03/19 07:55:32;;;;;;;29.88;9.15;;;23.80;70.90;;;;;;6177458;23;20309;-76
2022/03/19 07:57:59;;;;;;;30.98;9.50;;;23.90;70.90;;;;;;6177977;23;20007;-71
2022/03/19 08:00:26;;;;;;;17.33;7.63;;;24.00;70.70;;;;;;6176761;23;20054;-75
2022/03/19 08:02:53;;;;;;;21.70;8.15;;;24.00;70.10;;;;;;6178039;23;20054;-69
2022/03/19 08:05:19;;;;;;;19.25;6.15;;;24.00;69.30;;;;;;6176782;23;20005;-70
2022/03/19 08:07:46;;;;;;;18.20;7.30;;;24.10;68.90;;;;;;6177217;23;20077;-74
2022/03/19 08:10:13;;;;;;;15.65;6.45;;;24.10;68.40;;;;;;6174823;23;19997;-74
2022/03/19 08:12:42;;;;;;;32.40;7.25;;;24.20;68.20;;;;;;6176188;23;20028;-71
2022/03/19 08:15:10;;;;;;;17.17;6.07;;;24.20;67.10;;;;;;6177047;23;20001;-73
2022/03/19 08:17:41;;;;;;;18.65;6.00;;;24.30;67.10;;;;;;6175662;23;20004;-79
2022/03/19 08:20:08;;;;;;;11.90;5.50;;;24.30;66.60;;;;;;6178272;23;20008;-72
2022/03/19 08:22:35;;;;;;;14.75;5.68;;;24.40;66.10;;;;;;6176185;23;20013;-71
2022/03/19 08:25:03;;;;;;;17.15;5.50;;;24.40;66.00;;;;;;6177705;23;19997;-82
2022/03/19 08:27:29;;;;;;;14.93;6.72;;;24.40;65.90;;;;;;6177177;23;20005;-74
2022/03/19 08:29:56;;;;;;;20.52;6.05;;;24.50;65.90;;;;;;6177159;23;20073;-70
2022/03/19 08:32:22;;;;;;;14.70;5.53;;;24.60;65.90;;;;;;6177812;23;20040;-80
2022/03/19 08:34:50;;;;;;;21.15;5.95;;;24.60;65.40;;;;;;6176139;23;20013;-74
2022/03/19 08:37:17;;;;;;;13.20;4.40;;;24.70;65.40;;;;;;6177741;23;20007;-77
2022/03/19 08:42:28;;;;;;;21.60;5.40;;;24.70;64.60;;;;;;6177457;23;20024;-71
2022/03/19 08:44:57;;;;;;;18.42;5.38;;;24.80;64.60;;;;;;6176700;23;20025;-82
2022/03/19 08:47:23;;;;;;;23.05;4.70;;;24.90;64.60;;;;;;6176766;23;20004;-76
2022/03/19 08:49:50;;;;;;;23.98;5.60;;;24.90;64.70;;;;;;6177827;23;20005;-74
2022/03/19 08:52:16;;;;;;;15.45;4.03;;;25.00;64.80;;;;;;6176511;23;19997;-75
2022/03/19 08:54:43;;;;;;;10.15;3.40;;;25.00;65.00;;;;;;6175149;23;20005;-73
2022/03/19 08:57:10;;;;;;;8.90;3.55;;;25.10;65.50;;;;;;6174560;23;20001;-77
2022/03/19 08:59:37;;;;;;;13.80;3.67;;;25.20;65.40;;;;;;6177005;23;20005;-74
2022/03/19 09:02:03;;;;;;;10.90;3.28;;;25.20;65.00;;;;;;6176348;23;20082;-80
2022/03/19 09:04:31;;;;;;;7.57;3.70;;;25.30;64.90;;;;;;6176548;23;20025;-68
2022/03/19 09:06:58;;;;;;;10.88;3.55;;;25.30;64.50;;;;;;6177038;23;20009;-73
2022/03/19 09:09:25;;;;;;;8.65;3.17;;;25.40;64.40;;;;;;6175562;23;19997;-71
2022/03/19 09:11:51;;;;;;;31.50;18.48;;;25.50;64.20;;;;;;6177036;23;20005;-75
2022/03/19 09:14:19;;;;;;;15.50;11.05;;;25.50;63.90;;;;;;6175927;23;20408;-75
2022/03/19 09:16:46;;;;;;;12.85;5.43;;;25.50;63.80;;;;;;6176817;23;20025;-71
2022/03/19 09:19:13;;;;;;;15.82;6.18;;;25.60;63.80;;;;;;6176218;23;20080;-74
2022/03/19 09:21:40;;;;;;;9.30;4.20;;;25.70;63.30;;;;;;6175665;23;20325;-70
2022/03/19 09:24:07;;;;;;;12.68;3.95;;;25.70;62.90;;;;;;6176912;23;20017;-72
2022/03/19 09:26:33;;;;;;;5.13;2.58;;;25.80;62.60;;;;;;6175542;23;19993;-70
2022/03/19 09:29:00;;;;;;;7.85;2.75;;;26.00;61.40;;;;;;6176825;23;20417;-69
2022/03/19 09:31:27;;;;;;;11.02;2.95;;;26.20;60.20;;;;;;6175441;23;20072;-73
2022/03/19 09:33:54;;;;;;;16.25;5.18;;;26.60;59.60;;;;;;6176375;23;20025;-75
2022/03/19 09:36:21;;;;;;;10.88;3.13;;;26.70;59.20;;;;;;6175753;23;20001;-78
2022/03/19 09:38:47;;;;;;;28.85;4.57;;;26.70;58.60;;;;;;6175999;23;20008;-76
2022/03/19 09:41:14;;;;;;;18.17;3.55;;;26.70;59.20;;;;;;6177179;23;20005;-76
2022/03/19 09:43:41;;;;;;;11.52;3.30;;;26.70;58.20;;;;;;6176974;23;20009;-72
2022/03/19 09:46:08;;;;;;;7.38;3.13;;;26.70;58.50;;;;;;6178467;23;20526;-74
2022/03/19 09:48:34;;;;;;;8.13;3.60;;;26.60;58.00;;;;;;6177090;23;20004;-78
2022/03/19 09:51:01;;;;;;;4.57;2.20;;;26.70;58.00;;;;;;6177789;23;20005;-70
2022/03/19 09:53:29;;;;;;;11.38;3.03;;;26.60;57.80;;;;;;6177613;23;20002;-74
2022/03/19 09:55:58;;;;;;;31.48;5.25;;;26.70;57.90;;;;;;6177690;23;20009;-78
2022/03/19 09:58:25;;;;;;;17.33;4.35;;;26.70;58.30;;;;;;6178108;23;20012;-71
2022/03/19 10:00:51;;;;;;;24.98;4.75;;;26.80;59.30;;;;;;6176964;23;20544;-71
2022/03/19 10:03:22;;;;;;;9.70;3.22;;;26.80;59.00;;;;;;6177703;23;20744;-72
2022/03/19 10:08:37;;;;;;;21.70;6.72;;;26.90;58.90;;;;;;6177798;23;20028;-72
2022/03/19 10:11:11;;;;;;;19.15;5.10;;;27.00;58.90;;;;;;6177740;23;20012;-72
2022/03/19 10:13:48;;;;;;;17.08;4.53;;;27.10;58.60;;;;;;6177021;23;20431;-74
2022/03/19 10:16:25;;;;;;;9.70;3.47;;;27.10;58.30;;;;;;6177861;23;20317;-73
2022/03/19 10:19:03;;;;;;;16.50;4.35;;;27.20;57.70;;;;;;6176877;23;20036;-73
2022/03/19 10:21:35;;;;;;;19.15;4.47;;;27.30;58.00;;;;;;6178122;23;20017;-74
2022/03/19 10:24:01;;;;;;;14.43;3.25;;;27.40;57.80;;;;;;6177127;23;20076;-74
2022/03/19 10:26:34;;;;;;;33.13;4.72;;;27.50;57.20;;;;;;6177621;23;20006;-71
2022/03/19 10:29:09;;;;;;;17.92;3.75;;;27.60;56.80;;;;;;6177858;23;19997;-72
2022/03/19 10:31:46;;;;;;;25.55;17.00;;;27.70;56.70;;;;;;6176132;23;20005;-72
2022/03/19 10:34:14;;;;;;;41.72;31.20;;;27.80;56.20;;;;;;6177638;23;20048;-77
2022/03/19 10:36:42;;;;;;;22.25;11.65;;;27.80;56.00;;;;;;6176739;23;20003;-73
2022/03/19 10:39:29;;;;;;;20.27;6.38;;;27.90;56.00;;;;;;6177991;23;20001;-73
2022/03/19 10:41:57;;;;;;;16.90;4.78;;;27.90;55.40;;;;;;6177959;23;20012;-76
2022/03/19 10:44:27;;;;;;;6.07;3.10;;;28.00;55.20;;;;;;6176864;23;20382;-78
2022/03/19 10:46:56;;;;;;;20.05;4.25;;;28.10;55.00;;;;;;6178187;23;20114;-72
2022/03/19 10:49:26;;;;;;;13.13;3.97;;;28.10;54.90;;;;;;6280213;22;20013;-74
2022/03/19 10:51:55;;;;;;;8.75;3.33;;;28.20;54.90;;;;;;6171634;23;20054;-72
2022/03/19 10:54:22;;;;;;;41.90;31.42;;;28.20;54.50;;;;;;6177132;23;20058;-73
2022/03/19 10:56:50;;;;;;;16.35;8.85;;;28.30;54.50;;;;;;6176734;23;20428;-75
2022/03/19 10:59:18;;;;;;;11.27;6.38;;;28.30;54.30;;;;;;6177647;23;20004;-76
2022/03/19 11:01:48;;;;;;;14.88;5.03;;;28.40;53.80;;;;;;6176486;23;20009;-77
2022/03/19 11:04:15;;;;;;;13.95;4.28;;;28.40;53.50;;;;;;6178383;23;20394;-74
2022/03/19 11:06:44;;;;;;;15.75;4.63;;;28.40;53.20;;;;;;6176571;23;20028;-72
2022/03/19 11:09:15;;;;;;;20.35;6.60;;;28.50;53.50;;;;;;6177686;23;20001;-72
2022/03/19 11:11:55;;;;;;;14.48;8.70;;;28.50;53.50;;;;;;6176709;23;20417;-78
2022/03/19 11:14:24;;;;;;;22.38;6.75;;;28.60;53.60;;;;;;6176601;23;20321;-75
2022/03/19 11:19:49;;;;;;;9.40;3.53;;;28.70;53.30;;;;;;6177019;23;20020;-72
2022/03/19 11:22:17;;;;;;;11.32;3.47;;;28.70;53.00;;;;;;6178324;23;20013;-74
2022/03/19 11:25:06;;;;;;;11.57;4.25;;;28.80;53.00;;;;;;6177796;23;19997;-80
2022/03/19 11:27:36;;;;;;;13.20;3.15;;;28.80;52.80;;;;;;6176862;23;20013;-82
2022/03/19 11:30:04;;;;;;;9.40;4.28;;;28.90;52.60;;;;;;6282261;22;20005;-75
2022/03/19 11:32:31;;;;;;;12.23;3.72;;;29.00;52.50;;;;;;6177000;23;20001;-72
2022/03/19 11:34:59;;;;;;;11.65;3.95;;;29.00;52.40;;;;;;6177887;23;20009;-72
2022/03/19 11:38:05;;;;;;;7.85;2.67;;;29.10;52.20;;;;;;6177750;23;20001;-72
2022/03/19 11:40:37;;;;;;;10.15;3.13;;;29.20;52.50;;;;;;6176958;22;20076;-72
2022/03/19 11:43:05;;;;;;;13.15;3.25;;;29.20;52.60;;;;;;6178205;23;20357;-73
2022/03/19 11:45:40;;;;;;;7.20;3.10;;;29.30;52.70;;;;;;6176804;23;20005;-72
2022/03/19 11:48:47;;;;;;;5.47;2.50;;;29.30;52.70;;;;;;6177971;23;20240;-72
2022/03/19 11:51:25;;;;;;;10.45;3.00;;;29.40;52.30;;;;;;6178178;23;20497;-72
2022/03/19 11:53:53;;;;;;;8.73;3.00;;;29.50;52.10;;;;;;6177063;23;20030;-72
2022/03/19 11:56:21;;;;;;;10.35;3.50;;;29.50;51.80;;;;;;6178341;23;20080;-72
2022/03/19 11:58:48;;;;;;;10.43;2.83;;;29.50;51.50;;;;;;6177029;23;20016;-72
2022/03/19 12:01:14;;;;;;;4.50;2.40;;;29.60;51.60;;;;;;6177573;23;20009;-72
2022/03/19 12:04:05;;;;;;;8.40;2.80;;;29.60;51.40;;;;;;6177270;23;19997;-72
2022/03/19 12:06:38;;;;;;;7.43;2.38;;;29.70;51.20;;;;;;6177008;23;20004;-72
2022/03/19 12:09:05;;;;;;;7.35;2.30;;;29.70;50.80;;;;;;6177931;23;20424;-72
2022/03/19 12:11:33;;;;;;;7.63;2.55;;;29.80;50.90;;;;;;6177129;23;20001;-72
2022/03/19 12:13:59;;;;;;;9.85;2.53;;;29.80;51.10;;;;;;6177841;23;20451;-73
2022/03/19 12:17:36;;;;;;;14.40;3.08;;;29.80;50.80;;;;;;6177286;23;20005;-72
2022/03/19 12:20:45;;;;;;;6.68;3.03;;;29.90;50.90;;;;;;6176259;22;20332;-72
2022/03/19 12:24:06;;;;;;;29.15;4.85;;;30.00;51.70;;;;;;6176226;22;20005;-72
2022/03/19 12:27:15;;;;;;;10.75;3.40;;;30.00;52.30;;;;;;6181082;22;20008;-72
2022/03/19 12:30:21;;;;;;;12.27;3.63;;;30.10;52.70;;;;;;6176607;22;20122;-72
2022/03/19 12:33:37;;;;;;;10.25;3.22;;;30.10;53.10;;;;;;6176865;22;20009;-72
2022/03/19 12:36:55;;;;;;;6.60;3.03;;;30.10;53.20;;;;;;6176085;23;20069;-72
2022/03/19 12:39:21;;;;;;;25.98;5.60;;;30.20;53.20;;;;;;6176156;22;20001;-71
2022/03/19 12:41:48;;;;;;;42.38;5.93;;;30.10;53.10;;;;;;6175156;23;20017;-72
2022/03/19 12:44:26;;;;;;;22.45;4.72;;;30.10;53.50;;;;;;6176272;23;20004;-71
2022/03/19 12:47:04;;;;;;;12.15;3.60;;;30.10;53.90;;;;;;6176464;23;20005;-71
2022/03/19 12:49:32;;;;;;;16.85;3.70;;;30.10;54.10;;;;;;6280364;22;20321;-73
2022/03/19 12:52:29;;;;;;;8.35;3.63;;;30.10;54.30;;;;;;6177594;22;20357;-74
2022/03/19 12:54:56;;;;;;;16.85;4.30;;;30.00;54.50;;;;;;6175154;22;20335;-72
2022/03/19 12:57:25;;;;;;;13.93;3.67;;;30.10;54.70;;;;;;6176395;23;20006;-70
2022/03/19 12:59:59;;;;;;;10.77;3.45;;;30.10;54.70;;;;;;6176912;23;20051;-70
2022/03/19 13:02:26;;;;;;;11.80;3.33;;;30.10;54.80;;;;;;6279033;22;20013;-70
2022/03/19 13:04:53;;;;;;;9.52;3.17;;;30.10;55.00;;;;;;6176765;23;20337;-73
2022/03/19 13:07:22;;;;;;;7.53;2.45;;;30.00;55.90;;;;;;6175129;23;20082;-73
2022/03/19 13:09:48;;;;;;;16.65;3.40;;;30.00;56.10;;;;;;6176994;23;20001;-72
2022/03/19 13:12:23;;;;;;;12.25;3.75;;;30.00;56.50;;;;;;6175673;23;20001;-72